Time;durP1;ratioP1;P1;durP2;ratioP2;P2;SDS_P1;SDS_P2;PMS_P1;PMS_P2;Temp;Humidity;BMP_temperature;BMP_pressure;BME280_temperature;BME280_humidity;BME280_pressure;Samples;Min_cycle;Max_cycle;Signal;HPM_P1;HPM_P2
2023/01/31 00:01:25;;;;;;;31.50;1.75;;;2.30;99.90;;;;;;5085269;28;20489;-75
2023/01/31 00:03:56;;;;;;;36.58;3.20;;;2.20;99.90;;;;;;5052503;28;20049;-74
2023/01/31 00:06:29;;;;;;;29.25;2.25;;;2.20;99.90;;;;;;5052364;28;20053;-74
2023/01/31 00:08:56;;;;;;;38.83;2.15;;;2.20;99.90;;;;;;5054107;28;20052;-74
2023/01/31 00:11:24;;;;;;;34.00;1.75;;;2.10;99.90;;;;;;5052205;28;20049;-74
2023/01/31 00:13:51;;;;;;;34.28;2.05;;;2.00;99.90;;;;;;5036277;28;20133;-74
2023/01/31 00:16:18;;;;;;;38.42;3.13;;;1.90;99.90;;;;;;5052792;28;20385;-74
2023/01/31 00:18:45;;;;;;;37.53;2.78;;;2.10;99.90;;;;;;5019351;28;20045;-75
2023/01/31 00:21:13;;;;;;;40.70;2.33;;;2.10;99.90;;;;;;5053071;28;20429;-74
2023/01/31 00:23:40;;;;;;;43.03;2.17;;;2.10;99.90;;;;;;5052817;28;20041;-75
2023/01/31 00:26:33;;;;;;;23.75;1.90;;;2.00;99.90;;;;;;5035701;28;20044;-75
2023/01/31 00:29:01;;;;;;;39.40;2.78;;;2.00;99.90;;;;;;5058304;28;20053;-75
2023/01/31 00:31:29;;;;;;;39.90;3.55;;;2.00;99.90;;;;;;5035468;28;20400;-74
2023/01/31 00:33:56;;;;;;;46.05;2.08;;;2.00;99.90;;;;;;5051996;28;20103;-73
2023/01/31 00:36:27;;;;;;;31.20;2.35;;;1.90;99.90;;;;;;5052155;28;20136;-75
2023/01/31 00:38:54;;;;;;;39.25;2.50;;;1.80;99.90;;;;;;5085744;28;20044;-73
2023/01/31 00:41:22;;;;;;;36.55;2.97;;;1.80;99.90;;;;;;5052137;28;20049;-73
2023/01/31 00:43:49;;;;;;;40.80;2.25;;;1.70;99.90;;;;;;5053393;28;20419;-74
2023/01/31 00:46:15;;;;;;;33.27;1.90;;;1.60;99.90;;;;;;5052092;28;20125;-74
2023/01/31 00:48:41;;;;;;;45.03;2.10;;;1.70;99.90;;;;;;5052001;28;20284;-74
2023/01/31 00:51:07;;;;;;;32.85;2.10;;;1.60;99.90;;;;;;5053062;28;20084;-73
2023/01/31 00:53:34;;;;;;;33.03;1.80;;;1.50;99.90;;;;;;5052991;28;20048;-74
2023/01/31 00:56:08;;;;;;;22.45;1.50;;;1.60;99.90;;;;;;5051970;28;20183;-73
2023/01/31 00:58:35;;;;;;;36.67;2.70;;;1.50;99.90;;;;;;5085736;28;20075;-75
2023/01/31 01:01:07;;;;;;;37.60;2.30;;;1.50;99.90;;;;;;5052206;28;20392;-75
2023/01/31 01:03:33;;;;;;;29.27;2.35;;;1.40;99.90;;;;;;5053704;28;20049;-75
2023/01/31 01:05:58;;;;;;;33.20;2.35;;;1.40;99.90;;;;;;5035519;28;20060;-75
2023/01/31 01:08:24;;;;;;;29.38;1.45;;;1.40;99.90;;;;;;5052874;28;20049;-75
2023/01/31 01:10:50;;;;;;;30.23;2.55;;;1.40;99.90;;;;;;5052753;28;20225;-74
2023/01/31 01:13:16;;;;;;;23.33;2.10;;;1.40;99.90;;;;;;5037196;28;20106;-75
2023/01/31 01:15:41;;;;;;;39.38;2.17;;;1.40;99.90;;;;;;5023653;28;20053;-74
2023/01/31 01:18:07;;;;;;;28.33;1.42;;;1.30;99.90;;;;;;5056818;28;20132;-74
2023/01/31 01:20:33;;;;;;;19.15;1.77;;;1.40;99.90;;;;;;5055808;28;20045;-75
2023/01/31 01:22:59;;;;;;;26.20;1.80;;;1.30;99.90;;;;;;5056626;28;20136;-74
2023/01/31 01:25:25;;;;;;;32.58;2.50;;;1.30;99.90;;;;;;5055331;28;20557;-74
2023/01/31 01:27:51;;;;;;;34.67;1.70;;;1.40;99.90;;;;;;5056541;28;20132;-75
2023/01/31 01:30:17;;;;;;;36.38;2.25;;;1.40;99.90;;;;;;5039113;28;20060;-75
2023/01/31 01:32:43;;;;;;;28.40;1.80;;;1.50;99.90;;;;;;5055359;28;20048;-74
2023/01/31 01:35:09;;;;;;;39.90;2.38;;;1.50;99.90;;;;;;5055371;28;20474;-73
2023/01/31 01:37:34;;;;;;;24.70;1.33;;;1.50;99.90;;;;;;5055404;28;20087;-74
2023/01/31 01:40:00;;;;;;;25.38;1.42;;;1.60;99.90;;;;;;5038824;28;20080;-74
2023/01/31 01:42:26;;;;;;;29.98;1.90;;;1.60;99.90;;;;;;5056373;28;20144;-74
2023/01/31 01:44:58;;;;;;;21.05;1.50;;;1.60;99.90;;;;;;5055208;28;20049;-75
2023/01/31 01:47:39;;;;;;;37.65;1.98;;;1.60;99.90;;;;;;5039847;28;20390;-75
2023/01/31 01:50:23;;;;;;;29.50;1.27;;;1.60;99.90;;;;;;5039084;28;20049;-74
2023/01/31 01:53:06;;;;;;;29.08;1.67;;;1.60;99.90;;;;;;5056115;28;20085;-74
2023/01/31 01:55:40;;;;;;;25.48;1.15;;;1.60;99.90;;;;;;5057051;28;20115;-74
2023/01/31 01:58:16;;;;;;;42.38;1.75;;;1.70;99.90;;;;;;5056489;28;20045;-75
2023/01/31 02:00:44;;;;;;;28.35;1.30;;;1.70;99.90;;;;;;5054753;28;20048;-74
2023/01/31 02:03:10;;;;;;;34.33;3.65;;;1.70;99.90;;;;;;5054698;28;20045;-74
2023/01/31 02:05:41;;;;;;;28.50;2.17;;;1.70;99.90;;;;;;5055111;28;20049;-73
2023/01/31 02:08:07;;;;;;;28.27;1.52;;;1.70;99.90;;;;;;5055096;28;20290;-73
2023/01/31 02:10:45;;;;;;;26.13;1.70;;;1.80;99.90;;;;;;5088704;28;20040;-73
2023/01/31 02:13:12;;;;;;;26.75;2.75;;;1.80;99.90;;;;;;5088398;28;20523;-74
2023/01/31 02:15:38;;;;;;;25.27;1.42;;;1.80;99.90;;;;;;5089342;28;20386;-76
2023/01/31 02:18:05;;;;;;;35.90;1.80;;;1.80;99.90;;;;;;5056950;28;20037;-74
2023/01/31 02:21:06;;;;;;;28.38;2.40;;;1.80;99.90;;;;;;5056538;28;20048;-74
2023/01/31 02:23:46;;;;;;;31.52;1.80;;;1.80;99.90;;;;;;5041931;28;20543;-74
2023/01/31 02:26:34;;;;;;;34.42;2.40;;;1.90;99.90;;;;;;5054058;28;20056;-74
2023/01/31 02:29:14;;;;;;;27.83;1.83;;;2.00;99.90;;;;;;5054861;28;20402;-73
2023/01/31 02:32:02;;;;;;;34.95;2.20;;;2.00;99.90;;;;;;5056125;28;20087;-75
2023/01/31 02:34:43;;;;;;;38.53;2.63;;;2.00;99.90;;;;;;5056128;28;20136;-74
2023/01/31 02:37:36;;;;;;;34.78;2.20;;;2.10;99.90;;;;;;5038261;28;20064;-74
2023/01/31 02:40:31;;;;;;;23.75;1.48;;;2.20;99.90;;;;;;5054760;28;20114;-73
2023/01/31 02:43:22;;;;;;;23.55;1.55;;;2.30;99.90;;;;;;5037421;28;20060;-74
2023/01/31 02:46:13;;;;;;;25.58;1.67;;;2.30;99.90;;;;;;5054114;28;20055;-74
2023/01/31 02:48:42;;;;;;;24.40;2.17;;;2.40;99.90;;;;;;5054682;28;20045;-72
2023/01/31 02:51:16;;;;;;;38.45;2.17;;;2.40;99.90;;;;;;5055616;28;20048;-73
2023/01/31 02:54:04;;;;;;;27.08;2.03;;;2.50;99.90;;;;;;5054187;28;20048;-73
2023/01/31 02:56:33;;;;;;;28.95;2.92;;;2.50;99.90;;;;;;5054905;28;20088;-74
2023/01/31 02:59:13;;;;;;;39.53;2.28;;;2.60;99.90;;;;;;5054230;28;20048;-74
2023/01/31 03:01:44;;;;;;;40.15;2.75;;;2.70;99.90;;;;;;5054088;28;20126;-74
2023/01/31 03:04:11;;;;;;;25.70;1.80;;;2.80;99.90;;;;;;5055935;28;20397;-74
2023/01/31 03:07:25;;;;;;;32.88;2.83;;;2.90;99.90;;;;;;5087954;28;20059;-74
2023/01/31 03:10:26;;;;;;;30.10;2.05;;;2.90;99.90;;;;;;4974337;28;20066;-74
2023/01/31 03:13:10;;;;;;;37.03;2.42;;;2.90;99.90;;;;;;5055169;28;20124;-74
2023/01/31 03:18:59;;;;;;;26.38;1.60;;;3.00;99.90;;;;;;5087515;28;20492;-72
2023/01/31 03:21:33;;;;;;;38.13;3.05;;;3.00;99.90;;;;;;5087486;28;20485;-74
2023/01/31 03:23:59;;;;;;;33.65;2.38;;;3.20;99.90;;;;;;5053695;28;20124;-74
2023/01/31 03:26:27;;;;;;;26.45;2.95;;;3.10;99.90;;;;;;5054743;28;20045;-73
2023/01/31 03:28:56;;;;;;;36.40;2.55;;;3.10;99.90;;;;;;5054560;28;20500;-73
2023/01/31 03:31:34;;;;;;;41.47;3.55;;;3.20;99.90;;;;;;5054572;28;20053;-73
2023/01/31 03:34:04;;;;;;;42.10;4.10;;;3.10;99.90;;;;;;5052980;28;20045;-74
2023/01/31 03:36:52;;;;;;;41.22;3.15;;;3.20;99.90;;;;;;5053322;28;20458;-74
2023/01/31 03:39:30;;;;;;;37.83;2.72;;;3.20;99.90;;;;;;5054219;28;20346;-74
2023/01/31 03:42:20;;;;;;;28.88;3.38;;;3.20;99.90;;;;;;5054162;28;20041;-73
2023/01/31 03:45:23;;;;;;;37.55;4.25;;;3.20;99.90;;;;;;5053236;28;20091;-73
2023/01/31 03:47:50;;;;;;;32.72;2.83;;;3.30;99.90;;;;;;5053788;28;20049;-74
2023/01/31 03:50:26;;;;;;;27.83;2.38;;;3.30;99.90;;;;;;5053126;28;20045;-73
2023/01/31 03:53:04;;;;;;;31.52;2.75;;;3.30;99.90;;;;;;5054805;28;20063;-73
2023/01/31 03:55:34;;;;;;;44.08;3.15;;;3.30;99.90;;;;;;5052905;28;20055;-73
2023/01/31 03:58:03;;;;;;;41.40;4.25;;;3.40;99.90;;;;;;5054242;28;20128;-73
2023/01/31 04:00:31;;;;;;;30.05;2.72;;;3.30;99.90;;;;;;5054762;28;20048;-74
2023/01/31 04:03:12;;;;;;;35.83;3.35;;;3.40;99.90;;;;;;5052797;28;20119;-73
2023/01/31 04:05:39;;;;;;;37.92;3.05;;;3.50;99.90;;;;;;5054667;28;20049;-74
2023/01/31 04:08:05;;;;;;;43.35;4.07;;;3.50;99.90;;;;;;5053104;28;20334;-72
2023/01/31 04:10:31;;;;;;;20.17;2.17;;;3.50;99.90;;;;;;5036412;28;20041;-73
2023/01/31 04:12:57;;;;;;;30.88;2.60;;;3.60;99.90;;;;;;5053832;28;20094;-74
2023/01/31 04:15:23;;;;;;;50.75;4.10;;;3.60;99.90;;;;;;5053546;28;20045;-74
2023/01/31 04:17:48;;;;;;;38.67;3.95;;;3.70;99.90;;;;;;5054041;28;20078;-73
2023/01/31 04:20:14;;;;;;;32.00;2.72;;;3.80;99.90;;;;;;5052871;28;20076;-74
2023/01/31 04:22:40;;;;;;;49.72;3.50;;;3.80;99.90;;;;;;5053463;28;20108;-74
2023/01/31 04:25:07;;;;;;;35.03;3.28;;;3.80;99.90;;;;;;5053313;28;20044;-74
2023/01/31 04:27:32;;;;;;;33.70;3.22;;;3.80;99.90;;;;;;5086017;28;20362;-74
2023/01/31 04:29:58;;;;;;;43.05;4.00;;;3.90;99.90;;;;;;5035438;28;20045;-74
2023/01/31 04:32:24;;;;;;;40.67;3.95;;;4.00;99.90;;;;;;5052018;28;20037;-73
2023/01/31 04:34:49;;;;;;;42.30;4.85;;;4.00;99.90;;;;;;5020045;28;20175;-74
2023/01/31 04:37:16;;;;;;;44.45;3.30;;;4.10;99.90;;;;;;5035395;28;20057;-74
2023/01/31 04:39:41;;;;;;;30.30;3.67;;;4.20;99.90;;;;;;5053705;28;20092;-74
2023/01/31 04:42:07;;;;;;;42.92;4.93;;;4.30;99.90;;;;;;5085749;28;20084;-73
2023/01/31 04:44:33;;;;;;;51.85;4.60;;;4.40;99.90;;;;;;5052895;28;20521;-74
2023/01/31 04:46:58;;;;;;;44.65;4.80;;;4.40;99.90;;;;;;5052622;28;20055;-74
2023/01/31 04:49:25;;;;;;;38.25;4.40;;;4.50;99.90;;;;;;5035765;28;20444;-74
2023/01/31 04:51:51;;;;;;;37.17;4.20;;;4.50;99.90;;;;;;5051848;28;20052;-73
2023/01/31 04:54:16;;;;;;;35.40;5.25;;;4.60;99.90;;;;;;5053279;28;20045;-74
2023/01/31 04:56:42;;;;;;;45.40;5.63;;;4.70;99.90;;;;;;5036350;28;20381;-74
2023/01/31 04:59:08;;;;;;;35.45;4.68;;;4.70;99.90;;;;;;5035269;28;20135;-73
2023/01/31 05:01:34;;;;;;;45.30;4.90;;;4.80;99.90;;;;;;5036276;28;20037;-74
2023/01/31 05:03:59;;;;;;;49.70;6.68;;;4.70;99.90;;;;;;5051870;28;20417;-75
2023/01/31 05:06:25;;;;;;;47.42;5.40;;;4.90;99.90;;;;;;5053109;28;20041;-73
2023/01/31 05:08:53;;;;;;;45.90;4.80;;;4.90;99.90;;;;;;5052151;28;20056;-73
2023/01/31 05:11:19;;;;;;;53.55;5.57;;;4.90;99.90;;;;;;5052330;28;20049;-74
2023/01/31 05:13:46;;;;;;;45.90;5.70;;;4.90;99.90;;;;;;5052673;28;20089;-74
2023/01/31 05:16:12;;;;;;;39.47;7.13;;;4.90;99.90;;;;;;5051866;28;20048;-74
2023/01/31 05:18:38;;;;;;;57.97;5.82;;;5.00;99.90;;;;;;5052731;28;20092;-72
2023/01/31 05:21:05;;;;;;;55.25;6.00;;;5.00;99.90;;;;;;5035936;28;20044;-75
2023/01/31 05:23:32;;;;;;;54.03;5.97;;;5.00;99.90;;;;;;5052662;28;20469;-74
2023/01/31 05:25:57;;;;;;;54.60;6.32;;;4.90;99.90;;;;;;5035300;28;20047;-73
2023/01/31 05:28:25;;;;;;;66.95;6.65;;;5.00;99.90;;;;;;5069094;28;20053;-74
2023/01/31 05:30:59;;;;;;;;;;;4.90;99.90;;;;;;5052878;28;20466;-74
2023/01/31 05:33:26;;;;;;;54.78;8.05;;;4.90;99.90;;;;;;5051614;28;19920;-74
2023/01/31 05:35:52;;;;;;;56.83;7.95;;;5.00;99.90;;;;;;5085402;28;20156;-73
2023/01/31 05:38:18;;;;;;;56.90;7.15;;;5.00;99.90;;;;;;5068735;28;20548;-72
2023/01/31 05:40:45;;;;;;;60.72;6.90;;;4.90;99.90;;;;;;5085248;28;20041;-73
2023/01/31 05:43:11;;;;;;;48.13;7.70;;;5.00;99.90;;;;;;5051297;28;20081;-75
2023/01/31 05:45:37;;;;;;;64.20;8.35;;;5.00;99.90;;;;;;5051574;28;20461;-74
2023/01/31 05:48:03;;;;;;;55.30;7.18;;;4.90;99.90;;;;;;5053538;28;20043;-74
2023/01/31 05:50:29;;;;;;;56.72;7.88;;;4.90;99.90;;;;;;5051353;28;20048;-75
2023/01/31 05:52:58;;;;;;;59.33;8.18;;;5.00;99.90;;;;;;5053053;28;20064;-74
2023/01/31 05:55:25;;;;;;;67.97;9.30;;;5.00;99.90;;;;;;5051232;28;20130;-73
2023/01/31 05:57:53;;;;;;;47.65;6.60;;;5.10;99.90;;;;;;5052557;28;20187;-72
2023/01/31 06:00:20;;;;;;;50.25;9.05;;;5.10;99.90;;;;;;5055154;28;20071;-74
2023/01/31 06:02:46;;;;;;;55.55;8.32;;;5.10;99.90;;;;;;5039184;28;20049;-73
2023/01/31 06:05:13;;;;;;;62.25;11.00;;;5.10;99.90;;;;;;5056698;28;20145;-73
2023/01/31 06:07:39;;;;;;;60.93;8.97;;;5.20;99.90;;;;;;5055884;28;20044;-73
2023/01/31 06:10:08;;;;;;;52.00;9.63;;;5.20;99.90;;;;;;5055271;28;20055;-73
2023/01/31 06:12:37;;;;;;;54.70;8.68;;;5.20;99.90;;;;;;5056771;28;20128;-73
2023/01/31 06:15:03;;;;;;;63.83;10.02;;;5.20;99.90;;;;;;5089144;28;20045;-73
2023/01/31 06:17:29;;;;;;;67.13;10.40;;;5.20;99.90;;;;;;5088481;28;20059;-73
2023/01/31 06:19:55;;;;;;;69.63;11.45;;;5.20;99.90;;;;;;5056107;28;20041;-72
2023/01/31 06:22:21;;;;;;;59.15;11.15;;;5.30;99.90;;;;;;5055524;28;20041;-75
2023/01/31 06:24:46;;;;;;;57.53;10.35;;;5.30;99.90;;;;;;5055559;28;20045;-73
2023/01/31 06:27:12;;;;;;;82.30;12.70;;;5.30;99.90;;;;;;5056095;28;20083;-74
2023/01/31 06:29:38;;;;;;;68.15;11.25;;;5.30;99.90;;;;;;5055097;28;20048;-74
2023/01/31 06:32:04;;;;;;;72.78;10.20;;;5.30;99.90;;;;;;5055469;28;20044;-74
2023/01/31 06:34:30;;;;;;;70.93;11.02;;;5.40;99.90;;;;;;5054160;28;20053;-74
2023/01/31 06:36:57;;;;;;;59.78;11.13;;;5.40;99.90;;;;;;5055326;28;20044;-74
2023/01/31 06:39:23;;;;;;;50.03;8.60;;;5.40;99.90;;;;;;5038308;28;20060;-74
2023/01/31 06:41:49;;;;;;;59.58;10.48;;;5.30;99.90;;;;;;5054677;28;20045;-72
2023/01/31 06:44:15;;;;;;;59.65;10.07;;;5.40;99.90;;;;;;5053761;28;20393;-75
2023/01/31 06:46:40;;;;;;;65.18;10.50;;;5.40;99.90;;;;;;5054524;28;20061;-72
2023/01/31 06:49:06;;;;;;;63.25;9.43;;;5.40;99.90;;;;;;5055306;28;20048;-74
2023/01/31 06:51:32;;;;;;;76.10;11.00;;;5.40;99.90;;;;;;5037257;28;20225;-73
2023/01/31 06:53:58;;;;;;;61.97;9.93;;;5.40;99.90;;;;;;5054207;28;20178;-74
2023/01/31 06:56:24;;;;;;;73.70;11.93;;;5.40;99.90;;;;;;5070450;28;20521;-72
2023/01/31 06:58:49;;;;;;;57.22;8.40;;;5.40;99.90;;;;;;5055470;28;20064;-74
2023/01/31 07:01:15;;;;;;;57.33;8.73;;;5.40;99.90;;;;;;5054111;28;20424;-74
2023/01/31 07:03:41;;;;;;;58.08;9.57;;;5.50;99.90;;;;;;5037480;28;20049;-73
2023/01/31 07:06:08;;;;;;;59.55;9.10;;;5.50;99.90;;;;;;5053559;28;20111;-74
2023/01/31 07:08:34;;;;;;;46.63;7.00;;;5.50;99.90;;;;;;5037211;28;20041;-73
2023/01/31 07:11:00;;;;;;;59.23;9.73;;;5.50;99.90;;;;;;5054572;28;20076;-73
2023/01/31 07:13:27;;;;;;;46.97;7.70;;;5.50;99.90;;;;;;5053984;28;20124;-73
2023/01/31 07:15:53;;;;;;;55.63;7.75;;;5.50;99.90;;;;;;5054363;28;20566;-75
2023/01/31 07:18:19;;;;;;;59.03;9.37;;;5.50;99.90;;;;;;5037154;28;20056;-72
2023/01/31 07:20:45;;;;;;;47.28;7.20;;;5.60;99.90;;;;;;5053329;28;20133;-73
2023/01/31 07:23:11;;;;;;;43.45;7.88;;;5.60;99.90;;;;;;5053828;28;20049;-72
2023/01/31 07:25:37;;;;;;;46.67;6.82;;;5.60;99.90;;;;;;5053620;28;20095;-73
2023/01/31 07:28:03;;;;;;;46.83;7.82;;;5.60;99.90;;;;;;5053594;28;20500;-73
2023/01/31 07:30:29;;;;;;;57.80;7.68;;;5.70;99.90;;;;;;5053291;28;20052;-74
2023/01/31 07:32:55;;;;;;;42.72;7.15;;;5.60;99.90;;;;;;5054260;28;20037;-73
2023/01/31 07:35:21;;;;;;;51.08;7.97;;;5.70;99.90;;;;;;5053023;28;20377;-75
2023/01/31 07:37:50;;;;;;;53.58;6.40;;;5.70;99.90;;;;;;5053998;28;20044;-72
2023/01/31 07:40:15;;;;;;;50.22;5.97;;;5.70;99.90;;;;;;5053071;28;20045;-73
2023/01/31 07:42:41;;;;;;;66.07;8.48;;;5.70;99.90;;;;;;5036154;28;20049;-75
2023/01/31 07:45:10;;;;;;;48.15;6.38;;;5.70;99.90;;;;;;5036331;28;20501;-73
2023/01/31 07:47:36;;;;;;;63.03;7.45;;;5.80;99.90;;;;;;5052691;28;20048;-72
2023/01/31 07:50:02;;;;;;;48.65;5.35;;;5.70;99.90;;;;;;5052569;28;20044;-73
2023/01/31 07:52:28;;;;;;;54.35;6.25;;;5.70;99.90;;;;;;5053414;28;20051;-74
2023/01/31 07:54:53;;;;;;;47.30;6.22;;;5.70;99.90;;;;;;5086482;28;20404;-74
2023/01/31 07:57:19;;;;;;;57.17;5.88;;;5.70;99.90;;;;;;5053078;28;20045;-74
2023/01/31 07:59:45;;;;;;;50.20;5.28;;;5.70;99.90;;;;;;5020489;28;20072;-73
2023/01/31 08:04:56;;;;;;;55.35;7.10;;;5.80;99.90;;;;;;5087166;28;20381;-72
2023/01/31 08:07:22;;;;;;;45.08;7.10;;;5.80;99.90;;;;;;5053707;28;20053;-73
2023/01/31 08:09:49;;;;;;;35.00;5.85;;;5.90;99.90;;;;;;5053593;28;20098;-73
2023/01/31 08:12:15;;;;;;;45.00;6.17;;;5.80;99.90;;;;;;5052311;28;20051;-73
2023/01/31 08:14:42;;;;;;;61.78;7.65;;;5.80;99.90;;;;;;5052453;28;20793;-72
2023/01/31 08:17:08;;;;;;;52.17;7.03;;;5.90;99.90;;;;;;5035959;28;20492;-73
2023/01/31 08:19:34;;;;;;;48.05;6.63;;;5.80;99.90;;;;;;5052119;28;20074;-73
2023/01/31 08:22:01;;;;;;;51.90;6.53;;;5.90;99.90;;;;;;5035147;28;20045;-73
2023/01/31 08:24:29;;;;;;;59.88;7.38;;;5.90;99.90;;;;;;5052093;28;20124;-73
2023/01/31 08:26:55;;;;;;;49.88;7.05;;;5.90;99.90;;;;;;5053128;28;20110;-73
2023/01/31 08:29:21;;;;;;;45.55;6.30;;;5.90;99.90;;;;;;5052168;28;20135;-73
2023/01/31 08:31:47;;;;;;;43.35;6.95;;;5.90;99.90;;;;;;5052766;28;20045;-73
2023/01/31 08:34:13;;;;;;;35.55;6.32;;;5.90;99.90;;;;;;5035960;28;20052;-73
2023/01/31 08:36:39;;;;;;;55.65;7.22;;;5.90;99.90;;;;;;5053241;28;20077;-73
2023/01/31 08:39:04;;;;;;;53.25;6.70;;;5.90;99.90;;;;;;5051917;28;20045;-72
2023/01/31 08:41:32;;;;;;;53.70;8.13;;;5.90;99.90;;;;;;5051924;28;20187;-75
2023/01/31 08:43:58;;;;;;;48.95;7.47;;;6.00;99.90;;;;;;5053627;28;20053;-72
2023/01/31 08:46:28;;;;;;;43.33;8.00;;;5.90;99.90;;;;;;5051864;28;20053;-74
2023/01/31 08:48:58;;;;;;;44.80;7.68;;;5.90;99.90;;;;;;5085276;28;20157;-73
2023/01/31 08:51:24;;;;;;;46.95;7.28;;;6.00;99.90;;;;;;5052298;28;20041;-72
2023/01/31 08:53:49;;;;;;;55.17;8.98;;;6.00;99.90;;;;;;5036110;28;20065;-73
2023/01/31 08:56:16;;;;;;;63.67;10.73;;;6.00;99.90;;;;;;5068734;28;20056;-73
2023/01/31 08:58:43;;;;;;;39.80;7.55;;;6.10;99.90;;;;;;5051716;28;20132;-73
2023/01/31 09:01:10;;;;;;;;;;;6.10;99.90;;;;;;5035729;28;20060;-73
2023/01/31 09:03:37;;;;;;;41.10;8.35;;;6.00;99.90;;;;;;5052969;28;19944;-72
2023/01/31 09:06:06;;;;;;;42.10;7.45;;;6.00;99.90;;;;;;5085177;28;20053;-72
2023/01/31 09:08:33;;;;;;;39.67;7.60;;;6.00;99.90;;;;;;5052807;28;20128;-73
2023/01/31 09:11:01;;;;;;;39.40;7.55;;;6.00;99.90;;;;;;5035415;28;20049;-74
2023/01/31 09:13:29;;;;;;;39.25;7.25;;;6.00;99.90;;;;;;5053117;28;20106;-72
2023/01/31 09:15:58;;;;;;;;;;;6.10;99.90;;;;;;5053374;28;20061;-73
2023/01/31 09:18:24;;;;;;;41.75;7.70;;;6.10;99.90;;;;;;5052196;28;20003;-74
2023/01/31 09:20:49;;;;;;;52.97;7.85;;;6.20;99.90;;;;;;5051460;28;20127;-73
2023/01/31 09:23:15;;;;;;;35.95;6.85;;;6.30;99.90;;;;;;5051654;28;20041;-73
2023/01/31 09:25:41;;;;;;;30.98;6.80;;;6.40;99.90;;;;;;5051570;28;20465;-73
2023/01/31 09:28:06;;;;;;;36.50;5.90;;;6.40;99.90;;;;;;5019319;28;20052;-74
2023/01/31 09:30:32;;;;;;;34.60;6.35;;;6.60;99.90;;;;;;5035687;28;20142;-74
2023/01/31 09:33:00;;;;;;;39.17;6.40;;;6.60;99.90;;;;;;5051221;28;20370;-75
2023/01/31 09:35:26;;;;;;;39.17;6.63;;;6.60;99.90;;;;;;5038907;28;20052;-73
2023/01/31 09:37:51;;;;;;;36.13;5.60;;;6.70;99.90;;;;;;5055056;28;20118;-73
2023/01/31 09:40:22;;;;;;;37.22;6.95;;;6.70;99.90;;;;;;5088867;28;20049;-74
2023/01/31 09:42:48;;;;;;;41.90;6.07;;;6.70;99.90;;;;;;5056361;28;20065;-73
2023/01/31 09:45:31;;;;;;;41.25;7.68;;;6.70;99.90;;;;;;5056361;28;20063;-74
2023/01/31 09:47:59;;;;;;;34.10;5.82;;;6.70;99.90;;;;;;5054998;28;20076;-73
2023/01/31 09:51:02;;;;;;;47.17;6.95;;;6.80;99.90;;;;;;5088727;28;20041;-73
2023/01/31 09:53:37;;;;;;;36.08;5.28;;;6.80;99.90;;;;;;4972159;28;20047;-74
2023/01/31 09:56:03;;;;;;;31.25;4.97;;;6.90;99.90;;;;;;5072955;28;20118;-72
2023/01/31 09:58:46;;;;;;;39.33;6.07;;;6.90;99.90;;;;;;5055228;28;20080;-73
2023/01/31 10:01:26;;;;;;;31.73;4.78;;;6.90;99.90;;;;;;5038358;28;20053;-72
2023/01/31 10:04:12;;;;;;;37.30;4.60;;;7.00;99.90;;;;;;5055718;28;20036;-74
2023/01/31 10:07:01;;;;;;;33.08;5.35;;;7.00;99.90;;;;;;5056402;28;20068;-75
2023/01/31 10:09:49;;;;;;;26.13;4.88;;;7.00;99.90;;;;;;5038090;28;20504;-73
2023/01/31 10:12:21;;;;;;;37.85;5.03;;;7.00;99.90;;;;;;5056651;28;20385;-74
2023/01/31 10:15:31;;;;;;;37.22;3.88;;;6.90;99.90;;;;;;5055022;28;20060;-74
2023/01/31 10:18:21;;;;;;;23.40;3.88;;;6.90;99.90;;;;;;5054901;28;20047;-74
2023/01/31 10:20:55;;;;;;;25.33;3.85;;;6.90;99.90;;;;;;5056164;28;20053;-73
2023/01/31 10:23:39;;;;;;;35.08;5.53;;;7.00;99.90;;;;;;5055015;28;20052;-73
2023/01/31 10:26:12;;;;;;;34.20;4.13;;;7.00;99.90;;;;;;5072085;28;20085;-74
2023/01/31 10:29:05;;;;;;;37.70;4.03;;;7.00;99.90;;;;;;5054621;28;20132;-73
2023/01/31 10:31:37;;;;;;;23.85;4.20;;;7.00;99.90;;;;;;5053955;28;20056;-73
2023/01/31 10:34:29;;;;;;;35.72;4.30;;;7.10;99.90;;;;;;5055063;28;20049;-73
2023/01/31 10:36:58;;;;;;;25.92;3.75;;;7.10;99.90;;;;;;5088045;28;20436;-74
2023/01/31 10:39:34;;;;;;;28.65;4.43;;;7.10;99.90;;;;;;5055334;28;20056;-74
2023/01/31 10:42:33;;;;;;;35.15;5.72;;;7.10;99.90;;;;;;5070735;28;20049;-73
2023/01/31 10:45:07;;;;;;;19.15;3.30;;;7.00;99.90;;;;;;5037439;28;20401;-74
2023/01/31 10:47:35;;;;;;;26.00;3.78;;;7.10;99.90;;;;;;5055223;28;20052;-73
2023/01/31 10:50:12;;;;;;;25.38;4.00;;;7.10;99.90;;;;;;5054924;28;20041;-74
2023/01/31 10:52:57;;;;;;;28.23;5.13;;;7.10;99.90;;;;;;5088118;28;20052;-73
2023/01/31 10:55:41;;;;;;;38.17;3.88;;;7.00;99.90;;;;;;5054397;28;20056;-74
2023/01/31 10:58:16;;;;;;;32.60;4.50;;;7.10;99.90;;;;;;5055418;28;20394;-74
2023/01/31 11:00:42;;;;;;;32.72;4.32;;;7.10;99.90;;;;;;5054219;28;20088;-73
2023/01/31 11:03:10;;;;;;;23.07;4.03;;;7.00;99.90;;;;;;5087409;28;20059;-73
2023/01/31 11:05:49;;;;;;;34.83;5.25;;;6.90;99.90;;;;;;5055015;28;20566;-72
2023/01/31 11:08:34;;;;;;;41.55;4.95;;;6.90;99.90;;;;;;5055598;28;20045;-71
2023/01/31 11:11:07;;;;;;;33.45;5.10;;;6.80;99.90;;;;;;5054782;28;20045;-71
2023/01/31 11:13:32;;;;;;;44.22;5.90;;;6.70;99.90;;;;;;5021496;28;20125;-72
2023/01/31 11:16:02;;;;;;;45.40;5.50;;;6.70;99.90;;;;;;5036941;28;20139;-72
2023/01/31 11:18:30;;;;;;;38.53;6.47;;;6.60;99.90;;;;;;5053446;28;20047;-72
2023/01/31 11:20:57;;;;;;;46.50;6.43;;;6.70;99.90;;;;;;5054425;28;20062;-72
2023/01/31 11:23:26;;;;;;;38.28;5.90;;;6.70;99.90;;;;;;5053475;28;20057;-73
2023/01/31 11:25:53;;;;;;;54.88;6.68;;;6.70;99.90;;;;;;5069723;28;20060;-72
2023/01/31 11:28:40;;;;;;;37.50;6.20;;;6.80;99.90;;;;;;5054336;28;20582;-72
2023/01/31 11:31:16;;;;;;;46.28;7.18;;;6.90;99.90;;;;;;5054460;28;20521;-72
2023/01/31 11:33:44;;;;;;;40.80;6.65;;;6.80;99.90;;;;;;5053918;28;20049;-72
2023/01/31 11:36:25;;;;;;;40.22;7.22;;;6.80;99.90;;;;;;5086425;28;20416;-73
2023/01/31 11:38:52;;;;;;;56.03;8.10;;;6.90;99.90;;;;;;5053918;28;20373;-73
2023/01/31 11:41:34;;;;;;;43.15;6.85;;;6.90;99.90;;;;;;5053170;28;20114;-72
2023/01/31 11:44:12;;;;;;;39.33;7.75;;;6.90;99.90;;;;;;5036014;28;20192;-72
2023/01/31 11:46:45;;;;;;;50.90;8.48;;;6.90;99.90;;;;;;5053452;28;20139;-72
2023/01/31 11:49:16;;;;;;;43.33;7.03;;;6.90;99.90;;;;;;5036533;28;20085;-72
2023/01/31 11:51:44;;;;;;;42.95;6.20;;;7.00;99.90;;;;;;5053925;28;20128;-73
2023/01/31 11:54:16;;;;;;;44.72;8.10;;;7.00;99.90;;;;;;5052848;28;20053;-72
2023/01/31 11:56:44;;;;;;;57.45;5.82;;;7.10;99.90;;;;;;5053887;28;20132;-72
2023/01/31 11:59:19;;;;;;;42.05;7.30;;;7.10;99.90;;;;;;5086307;28;20052;-72
2023/01/31 12:01:51;;;;;;;31.60;6.32;;;7.10;99.90;;;;;;5053516;28;20493;-72
2023/01/31 12:04:30;;;;;;;38.85;6.28;;;7.00;99.90;;;;;;5053626;28;20041;-71
2023/01/31 12:07:05;;;;;;;44.35;6.70;;;7.10;99.90;;;;;;5053272;28;20084;-73
2023/01/31 12:09:43;;;;;;;44.80;7.47;;;7.10;99.90;;;;;;5052850;28;20041;-73
2023/01/31 12:12:20;;;;;;;;;;;7.10;99.90;;;;;;5052630;28;20048;-72
2023/01/31 12:14:47;;;;;;;40.80;5.28;;;7.20;99.90;;;;;;5053168;28;19943;-72
2023/01/31 12:17:16;;;;;;;32.10;4.55;;;7.20;99.90;;;;;;5052062;28;20190;-72
2023/01/31 12:20:08;;;;;;;39.08;5.47;;;7.20;99.90;;;;;;5035857;28;20123;-73
2023/01/31 12:22:45;;;;;;;49.38;5.95;;;7.30;99.90;;;;;;5030315;28;20057;-72
2023/01/31 12:25:51;;;;;;;29.23;3.90;;;7.30;99.90;;;;;;5053330;28;20056;-73
2023/01/31 12:28:39;;;;;;;43.67;4.97;;;7.50;99.90;;;;;;4953016;28;20087;-74
2023/01/31 12:31:42;;;;;;;35.80;4.63;;;7.50;99.90;;;;;;5083276;28;20061;-73
2023/01/31 12:34:43;;;;;;;31.63;5.18;;;7.60;99.90;;;;;;5052223;28;20500;-73
2023/01/31 12:37:40;;;;;;;34.78;4.22;;;7.60;99.90;;;;;;5014588;28;20114;-73
2023/01/31 12:40:06;;;;;;;29.98;3.88;;;7.60;99.90;;;;;;5052129;28;20055;-71
2023/01/31 12:42:58;;;;;;;32.75;4.15;;;7.60;99.90;;;;;;5051713;28;20057;-71
2023/01/31 12:45:43;;;;;;;34.58;3.78;;;7.70;99.90;;;;;;5052270;28;20595;-73
2023/01/31 12:48:47;;;;;;;27.67;4.80;;;7.80;99.90;;;;;;5053908;28;20049;-73
2023/01/31 12:51:32;;;;;;;35.80;3.97;;;7.80;99.90;;;;;;5083691;28;20502;-72
2023/01/31 12:54:15;;;;;;;40.72;4.97;;;7.80;99.90;;;;;;5051730;28;20049;-72
2023/01/31 12:56:50;;;;;;;24.00;4.15;;;7.90;99.90;;;;;;5053245;28;20069;-73
2023/01/31 12:59:21;;;;;;;22.77;3.92;;;7.90;99.90;;;;;;5053721;28;20052;-72
2023/01/31 13:01:53;;;;;;;27.20;3.15;;;8.00;99.90;;;;;;5052896;28;20124;-73
2023/01/31 13:04:46;;;;;;;25.45;3.67;;;8.10;99.90;;;;;;5052786;28;20048;-74
2023/01/31 13:07:18;;;;;;;27.80;3.00;;;8.10;99.90;;;;;;5051736;28;20548;-73
2023/01/31 13:09:47;;;;;;;37.10;3.25;;;8.20;99.90;;;;;;5056371;28;20055;-73
2023/01/31 13:12:19;;;;;;;26.55;3.90;;;8.20;99.90;;;;;;5056643;28;20045;-73
2023/01/31 13:14:55;;;;;;;23.23;3.05;;;8.30;99.90;;;;;;5056915;28;20083;-74
2023/01/31 13:17:27;;;;;;;28.25;3.05;;;8.40;99.90;;;;;;5056573;28;20053;-73